Leon Dias — D5PH6 — position and weather

sailwx.info

Track history (hours):
 
Tides and Currents Weather Stations Pressure Air Temp Water Temp Dewpoint Dewpoint Depression Visibility Wind Speed Wind Dir Waves Ship Positions

Leon Dias

Last reported at 2018-Jun-21 20:24 UTC. Time now 2018-Jun-25 08:16 UTC.
Position N 25°28' W 079°31'.

Length 180 m; draft 8.3 m.

Type: Tanker. MMSI: 636018344.

Date/timePositionNaut miles runAvg speedWind from/ knotsBaromVisibWave heightAir tempDewpointWater temp
2018-Jun-21 20:24N 25°28' W 079°31'411.0
2018-Jun-21 20:00N 25°32' W 079°30'610.9
2018-Jun-21 19:27N 25°38' W 079°28'810.8
2018-Jun-21 18:45N 25°45' W 079°26'310.8
2018-Jun-21 18:30N 25°48' W 079°25'810.9
2018-Jun-21 17:48N 25°55' W 079°23'  
2018-Jun-12 15:39N 35°54' W 028°11'9812.2
2018-Jun-12 07:35N 35°52' W 026°10'712.1
2018-Jun-12 06:58N 35°52' W 026°01'712.0
2018-Jun-12 06:24N 35°51' W 025°52'512.3
2018-Jun-12 06:00N 35°51' W 025°46'712.4
2018-Jun-12 05:28N 35°51' W 025°38'612.2
2018-Jun-12 05:01N 35°51' W 025°31'612.3
2018-Jun-12 04:30N 35°51' W 025°23'612.7
2018-Jun-12 04:00N 35°50' W 025°16'612.6
2018-Jun-12 03:30N 35°50' W 025°08'612.3
2018-Jun-12 03:00N 35°51' W 025°00'612.5
2018-Jun-12 02:30N 35°52' W 024°53'612.7
2018-Jun-12 02:00N 35°53' W 024°45'612.9
2018-Jun-12 01:31N 35°54' W 024°37'713.0
2018-Jun-12 01:00N 35°56' W 024°29'713.2
2018-Jun-12 00:29N 35°57' W 024°21'613.1
2018-Jun-12 00:01N 35°58' W 024°13'713.1
2018-Jun-11 23:30N 35°59' W 024°05'612.8
2018-Jun-11 23:00N 36°00' W 023°58'612.9
2018-Jun-11 22:30N 36°01' W 023°50'612.8
2018-Jun-11 22:00N 36°03' W 023°42'612.8
2018-Jun-11 21:30N 36°04' W 023°34'712.7
2018-Jun-11 20:57N 36°05' W 023°26'612.8
2018-Jun-11 20:30N 36°06' W 023°18'  
Track history (hours):
 
Tides and Currents Weather Stations Pressure Air Temp Water Temp Dewpoint Dewpoint Depression Visibility Wind Speed Wind Dir Waves Ship Positions

Leon Dias

Last reported at 2018-Jun-21 20:24 UTC. Time now 2018-Jun-25 08:16 UTC.
Position N 25°28' W 079°31'.

Length 180 m; draft 8.3 m.

Type: Tanker. MMSI: 636018344.

Date/timePositionNaut miles runAvg speedWind from/ knotsBaromVisibWave heightAir tempDewpointWater temp
2018-Jun-21 20:24N 25°28' W 079°31'411.0
2018-Jun-21 20:00N 25°32' W 079°30'610.9
2018-Jun-21 19:27N 25°38' W 079°28'810.8
2018-Jun-21 18:45N 25°45' W 079°26'310.8
2018-Jun-21 18:30N 25°48' W 079°25'810.9
2018-Jun-21 17:48N 25°55' W 079°23'  
2018-Jun-12 15:39N 35°54' W 028°11'9812.2
2018-Jun-12 07:35N 35°52' W 026°10'712.1
2018-Jun-12 06:58N 35°52' W 026°01'712.0
2018-Jun-12 06:24N 35°51' W 025°52'512.3
2018-Jun-12 06:00N 35°51' W 025°46'712.4
2018-Jun-12 05:28N 35°51' W 025°38'612.2
2018-Jun-12 05:01N 35°51' W 025°31'612.3
2018-Jun-12 04:30N 35°51' W 025°23'612.7
2018-Jun-12 04:00N 35°50' W 025°16'612.6
2018-Jun-12 03:30N 35°50' W 025°08'612.3
2018-Jun-12 03:00N 35°51' W 025°00'612.5
2018-Jun-12 02:30N 35°52' W 024°53'612.7
2018-Jun-12 02:00N 35°53' W 024°45'612.9
2018-Jun-12 01:31N 35°54' W 024°37'713.0
2018-Jun-12 01:00N 35°56' W 024°29'713.2
2018-Jun-12 00:29N 35°57' W 024°21'613.1
2018-Jun-12 00:01N 35°58' W 024°13'713.1
2018-Jun-11 23:30N 35°59' W 024°05'612.8
2018-Jun-11 23:00N 36°00' W 023°58'612.9
2018-Jun-11 22:30N 36°01' W 023°50'612.8
2018-Jun-11 22:00N 36°03' W 023°42'612.8
2018-Jun-11 21:30N 36°04' W 023°34'712.7
2018-Jun-11 20:57N 36°05' W 023°26'612.8
2018-Jun-11 20:30N 36°06' W 023°18'  

Dump ship's entire track history